KDNS/DNS METAR and TAF weather

Enter ICAO airport designator
Station Type Date Time Source
KDNS METAR 2021/02/27 04:15 UTC NOAA

KDNS 270415Z AUTO 21006KT 10SM CLR 02/M00 A2977 RMK AO2


Station Type Date Time Source
KDNS Decoded METAR 2021/02/27 04:15 UTC NOAA

Denison, IA, United States (KDNS) 41-59N 095-23W
Feb 26, 2021 - 11:15 PM EST / 2021.02.27 0415 UTC
Wind: from the SSW (210 degrees) at 7 MPH (6 KT):0
Visibility: 10 mile(s):0
Sky conditions: clear
Temperature: 35 F (2 C)
Windchill: 28 F (-2 C):1
Dew Point: 32 F (0 C)
Relative Humidity: 86%
Pressure (altimeter): 29.77 in. Hg (1008 hPa)
ob: KDNS 270415Z AUTO 21006KT 10SM CLR 02/M00 A2977 RMK AO2
cycle: 4

Station Type Date Time Source
KDNS TAF UTC NOAA

Error!

Example: see airport list